UAL2198 KEWR-KAUS
Flight info
| Callsign | UAL2198 |
|---|---|
| Flight time | N/A |
| Altitude | 32000 |
| Route | PARKE J6 HVQ Q68 LITTR BROBB WINDU SEWZY6 |
| Aircraft | B38M/M-SDE1FGHILORVWXY/HB1 |
Departure
| Time | 2026-05-06 17:11 |
|---|---|
| Airport | Newark Liberty International Airport (KEWR) |
Arrival
| Time | N/A |
|---|---|
| Airport | Austin Bergstrom International Airport (KAUS) |
| Time | Latitude | Longitude | Altitude | Speed | Heading |
|---|---|---|---|---|---|
| 2026-05-06 16:29 | 40.69774 | -74.18002 | 24 ft | 0 kts | 66° |
| 2026-05-06 16:30 | 40.69776 | -74.17998 | 24 ft | 0 kts | 66° |
| 2026-05-06 16:58 | 40.69768 | -74.18019 | 36 ft | 4 kts | 66° |
| 2026-05-06 16:58 | 40.69760 | -74.18045 | 27 ft | 4 kts | 71° |
| 2026-05-06 16:58 | 40.69756 | -74.18078 | 28 ft | 4 kts | 102° |
| 2026-05-06 16:58 | 40.69768 | -74.18104 | 27 ft | 3 kts | 153° |
| 2026-05-06 16:59 | 40.69789 | -74.18121 | 29 ft | 4 kts | 132° |
| 2026-05-06 16:59 | 40.69805 | -74.18149 | 26 ft | 4 kts | 131° |
| 2026-05-06 16:59 | 40.69826 | -74.18166 | 28 ft | 4 kts | 169° |
| 2026-05-06 16:59 | 40.69842 | -74.18163 | 26 ft | 4 kts | 251° |
| 2026-05-06 17:00 | 40.69836 | -74.18146 | 27 ft | 4 kts | 334° |
| 2026-05-06 17:00 | 40.69817 | -74.18134 | 27 ft | 0 kts | 334° |
| 2026-05-06 17:05 | 40.69821 | -74.18136 | 29 ft | 3 kts | 334° |
| 2026-05-06 17:06 | 40.69869 | -74.18163 | 26 ft | 12 kts | 347° |
| 2026-05-06 17:06 | 40.69959 | -74.18157 | 27 ft | 13 kts | 9° |
| 2026-05-06 17:06 | 40.70051 | -74.18133 | 24 ft | 14 kts | 14° |
| 2026-05-06 17:06 | 40.70143 | -74.18093 | 28 ft | 14 kts | 32° |
| 2026-05-06 17:07 | 40.70163 | -74.17977 | 24 ft | 14 kts | 94° |
| 2026-05-06 17:07 | 40.70156 | -74.17852 | 26 ft | 14 kts | 95° |
| 2026-05-06 17:07 | 40.70146 | -74.17724 | 29 ft | 14 kts | 97° |
| 2026-05-06 17:07 | 40.70138 | -74.17594 | 25 ft | 14 kts | 92° |
| 2026-05-06 17:08 | 40.70132 | -74.17462 | 28 ft | 14 kts | 95° |
| 2026-05-06 17:08 | 40.70124 | -74.17328 | 26 ft | 15 kts | 92° |
| 2026-05-06 17:08 | 40.70112 | -74.17190 | 25 ft | 15 kts | 95° |
| 2026-05-06 17:08 | 40.70103 | -74.17049 | 26 ft | 16 kts | 97° |
| 2026-05-06 17:09 | 40.70094 | -74.16906 | 24 ft | 16 kts | 94° |
| 2026-05-06 17:09 | 40.70093 | -74.16762 | 24 ft | 16 kts | 95° |
| 2026-05-06 17:09 | 40.70078 | -74.16617 | 24 ft | 16 kts | 95° |
| 2026-05-06 17:09 | 40.70069 | -74.16464 | 26 ft | 17 kts | 98° |
| 2026-05-06 17:10 | 40.70053 | -74.16371 | 23 ft | 8 kts | 133° |
| 2026-05-06 17:10 | 40.70006 | -74.16376 | 24 ft | 0 kts | 206° |
| 2026-05-06 17:10 | 40.69861 | -74.16467 | 24 ft | 60 kts | 205° |
| 2026-05-06 17:10 | 40.69263 | -74.16846 | 26 ft | 128 kts | 205° |
| 2026-05-06 17:11 | 40.68318 | -74.17440 | 311 ft | 160 kts | 204° |
| 2026-05-06 17:11 | 40.67266 | -74.18035 | 1090 ft | 168 kts | 198° |
| 2026-05-06 17:11 | 40.66050 | -74.18315 | 1754 ft | 187 kts | 188° |
| 2026-05-06 17:11 | 40.64688 | -74.18481 | 2327 ft | 205 kts | 191° |
| 2026-05-06 17:12 | 40.63252 | -74.18853 | 3042 ft | 212 kts | 202° |
| 2026-05-06 17:12 | 40.61996 | -74.19910 | 3664 ft | 224 kts | 231° |
| 2026-05-06 17:12 | 40.61347 | -74.21658 | 4187 ft | 241 kts | 258° |
| 2026-05-06 17:12 | 40.61345 | -74.23542 | 4930 ft | 245 kts | 274° |
| 2026-05-06 17:13 | 40.61544 | -74.25445 | 5657 ft | 249 kts | 271° |
| 2026-05-06 17:13 | 40.61699 | -74.27736 | 6466 ft | 252 kts | 271° |
| 2026-05-06 17:13 | 40.61870 | -74.30030 | 7365 ft | 251 kts | 271° |
| 2026-05-06 17:13 | 40.62051 | -74.32325 | 8292 ft | 251 kts | 270° |
| 2026-05-06 17:14 | 40.62236 | -74.34602 | 9242 ft | 250 kts | 270° |
| 2026-05-06 17:14 | 40.62428 | -74.36895 | 9912 ft | 253 kts | 271° |
| 2026-05-06 17:14 | 40.62624 | -74.39202 | 10118 ft | 257 kts | 271° |
| 2026-05-06 17:14 | 40.62829 | -74.41626 | 10491 ft | 276 kts | 271° |
| 2026-05-06 17:15 | 40.63051 | -74.44234 | 10800 ft | 296 kts | 272° |
| 2026-05-06 17:15 | 40.63288 | -74.47021 | 11032 ft | 316 kts | 272° |
| 2026-05-06 17:15 | 40.63540 | -74.49961 | 11368 ft | 330 kts | 272° |
| 2026-05-06 17:15 | 40.63799 | -74.52999 | 11983 ft | 334 kts | 272° |
| 2026-05-06 17:16 | 40.64059 | -74.56055 | 12670 ft | 338 kts | 273° |
| 2026-05-06 17:16 | 40.64321 | -74.59153 | 13338 ft | 342 kts | 273° |
| 2026-05-06 17:16 | 40.64539 | -74.61730 | 13891 ft | 344 kts | 274° |
| 2026-05-06 17:16 | 40.64804 | -74.64880 | 14492 ft | 348 kts | 274° |
| 2026-05-06 17:17 | 40.65072 | -74.68071 | 15054 ft | 352 kts | 274° |
| 2026-05-06 17:17 | 40.65342 | -74.71297 | 15623 ft | 356 kts | 274° |
| 2026-05-06 17:17 | 40.65613 | -74.74557 | 16173 ft | 360 kts | 274° |
| 2026-05-06 17:17 | 40.65884 | -74.77813 | 16696 ft | 364 kts | 274° |
| 2026-05-06 17:18 | 40.66159 | -74.81146 | 17250 ft | 368 kts | 274° |
| 2026-05-06 17:18 | 40.66437 | -74.84517 | 17799 ft | 372 kts | 274° |
| 2026-05-06 17:18 | 40.66717 | -74.87925 | 18310 ft | 376 kts | 274° |
| 2026-05-06 17:18 | 40.66999 | -74.91358 | 18804 ft | 379 kts | 274° |
| 2026-05-06 17:19 | 40.67281 | -74.94820 | 19292 ft | 381 kts | 274° |
| 2026-05-06 17:19 | 40.67564 | -74.98302 | 19785 ft | 384 kts | 274° |
| 2026-05-06 17:19 | 40.67838 | -75.01690 | 20259 ft | 386 kts | 274° |
| 2026-05-06 17:19 | 40.68017 | -75.05219 | 20711 ft | 387 kts | 265° |
| 2026-05-06 17:20 | 40.67456 | -75.08683 | 21188 ft | 389 kts | 249° |
| 2026-05-06 17:20 | 40.66227 | -75.11887 | 21630 ft | 394 kts | 243° |
| 2026-05-06 17:20 | 40.64872 | -75.15041 | 22102 ft | 397 kts | 242° |
| 2026-05-06 17:20 | 40.63479 | -75.18195 | 22583 ft | 400 kts | 242° |
| 2026-05-06 17:21 | 40.62057 | -75.21363 | 23015 ft | 404 kts | 242° |
| 2026-05-06 17:21 | 40.60616 | -75.24541 | 23443 ft | 406 kts | 242° |
| 2026-05-06 17:21 | 40.59172 | -75.27706 | 23790 ft | 409 kts | 242° |
| 2026-05-06 17:21 | 40.57705 | -75.30914 | 24185 ft | 410 kts | 242° |
| 2026-05-06 17:22 | 40.56231 | -75.34132 | 24574 ft | 412 kts | 242° |
| 2026-05-06 17:22 | 40.54744 | -75.37374 | 24930 ft | 415 kts | 242° |
| 2026-05-06 17:22 | 40.53253 | -75.40621 | 25305 ft | 416 kts | 242° |
| 2026-05-06 17:22 | 40.51754 | -75.43883 | 25711 ft | 418 kts | 242° |
| 2026-05-06 17:23 | 40.50246 | -75.47160 | 26067 ft | 420 kts | 242° |
| 2026-05-06 17:23 | 40.48729 | -75.50452 | 26405 ft | 422 kts | 242° |
| 2026-05-06 17:23 | 40.47202 | -75.53765 | 26766 ft | 423 kts | 242° |
| 2026-05-06 17:23 | 40.45673 | -75.57077 | 27094 ft | 425 kts | 242° |
| 2026-05-06 17:24 | 40.44139 | -75.60398 | 27404 ft | 427 kts | 242° |
| 2026-05-06 17:24 | 40.42590 | -75.63744 | 27735 ft | 429 kts | 242° |
| 2026-05-06 17:24 | 40.41036 | -75.67099 | 28088 ft | 430 kts | 242° |
| 2026-05-06 17:24 | 40.39485 | -75.70442 | 28574 ft | 428 kts | 242° |
| 2026-05-06 17:25 | 40.37941 | -75.73768 | 29018 ft | 426 kts | 242° |
| 2026-05-06 17:25 | 40.36401 | -75.77079 | 29488 ft | 424 kts | 242° |
| 2026-05-06 17:25 | 40.34868 | -75.80376 | 29971 ft | 422 kts | 242° |
| 2026-05-06 17:25 | 40.33343 | -75.83650 | 30367 ft | 420 kts | 242° |
| 2026-05-06 17:26 | 40.31821 | -75.86916 | 30757 ft | 418 kts | 242° |
| 2026-05-06 17:26 | 40.30324 | -75.90123 | 31173 ft | 417 kts | 243° |
| 2026-05-06 17:26 | 40.28814 | -75.93356 | 31602 ft | 414 kts | 243° |
| 2026-05-06 17:26 | 40.27311 | -75.96572 | 31859 ft | 414 kts | 243° |
| 2026-05-06 17:27 | 40.25811 | -75.99775 | 31844 ft | 411 kts | 243° |
| 2026-05-06 17:27 | 40.22833 | -76.06127 | 31842 ft | 409 kts | 243° |
| 2026-05-06 17:28 | 40.19856 | -76.12463 | 31861 ft | 409 kts | 243° |
| 2026-05-06 17:28 | 40.16876 | -76.18794 | 31858 ft | 408 kts | 243° |
| 2026-05-06 17:29 | 40.13902 | -76.25099 | 31858 ft | 407 kts | 243° |
| 2026-05-06 17:29 | 40.10976 | -76.31377 | 31862 ft | 406 kts | 244° |
| 2026-05-06 17:30 | 40.08064 | -76.37690 | 31856 ft | 406 kts | 244° |
| 2026-05-06 17:30 | 40.05148 | -76.43992 | 31858 ft | 405 kts | 244° |
| 2026-05-06 17:31 | 40.02234 | -76.50284 | 31856 ft | 404 kts | 244° |
| 2026-05-06 17:31 | 39.99323 | -76.56561 | 31851 ft | 404 kts | 244° |
| 2026-05-06 17:32 | 39.96416 | -76.62821 | 31851 ft | 403 kts | 244° |
| 2026-05-06 17:32 | 39.93507 | -76.69070 | 31849 ft | 402 kts | 244° |
| 2026-05-06 17:33 | 39.90607 | -76.75289 | 31867 ft | 402 kts | 244° |
| 2026-05-06 17:33 | 39.87722 | -76.81462 | 31858 ft | 401 kts | 244° |
| 2026-05-06 17:34 | 39.84817 | -76.87665 | 31858 ft | 401 kts | 244° |
| 2026-05-06 17:34 | 39.81915 | -76.93850 | 31860 ft | 400 kts | 244° |
| 2026-05-06 17:35 | 39.79013 | -77.00024 | 31858 ft | 399 kts | 244° |
| 2026-05-06 17:35 | 39.76114 | -77.06176 | 31869 ft | 399 kts | 244° |
| 2026-05-06 17:36 | 39.71788 | -77.15339 | 31862 ft | 398 kts | 244° |
| 2026-05-06 17:36 | 39.68895 | -77.21453 | 31859 ft | 397 kts | 244° |
| 2026-05-06 17:37 | 39.65995 | -77.27565 | 31857 ft | 397 kts | 244° |
| 2026-05-06 17:37 | 39.63099 | -77.33659 | 31865 ft | 397 kts | 244° |
| 2026-05-06 17:38 | 39.60199 | -77.39750 | 31865 ft | 397 kts | 244° |
| 2026-05-06 17:38 | 39.57300 | -77.45825 | 31865 ft | 396 kts | 244° |
| 2026-05-06 17:39 | 39.54396 | -77.51902 | 31874 ft | 396 kts | 244° |
| 2026-05-06 17:39 | 39.51498 | -77.57954 | 31864 ft | 394 kts | 244° |
| 2026-05-06 17:40 | 39.48604 | -77.63986 | 31856 ft | 395 kts | 244° |
| 2026-05-06 17:40 | 39.45702 | -77.70020 | 31822 ft | 393 kts | 244° |
| 2026-05-06 17:41 | 39.42802 | -77.76043 | 31822 ft | 394 kts | 244° |
| 2026-05-06 17:41 | 39.39925 | -77.82006 | 31828 ft | 393 kts | 244° |
| 2026-05-06 17:42 | 39.37348 | -77.88108 | 31826 ft | 389 kts | 248° |
| 2026-05-06 17:42 | 39.34880 | -77.94400 | 31827 ft | 389 kts | 248° |
| 2026-05-06 17:43 | 39.32407 | -78.00621 | 31816 ft | 389 kts | 248° |
| 2026-05-06 17:43 | 39.29935 | -78.06815 | 31821 ft | 388 kts | 248° |
| 2026-05-06 17:44 | 39.27462 | -78.12998 | 31834 ft | 388 kts | 248° |
| 2026-05-06 17:44 | 39.24987 | -78.19174 | 31845 ft | 387 kts | 248° |
| 2026-05-06 17:45 | 39.22511 | -78.25341 | 31838 ft | 387 kts | 247° |
| 2026-05-06 17:45 | 39.20034 | -78.31495 | 31840 ft | 386 kts | 247° |
| 2026-05-06 17:46 | 39.17553 | -78.37649 | 31832 ft | 387 kts | 247° |
| 2026-05-06 17:46 | 39.15094 | -78.43736 | 31834 ft | 385 kts | 247° |
| 2026-05-06 17:47 | 39.12596 | -78.49908 | 31808 ft | 386 kts | 247° |
| 2026-05-06 17:47 | 39.10126 | -78.55998 | 31819 ft | 385 kts | 247° |
| 2026-05-06 17:48 | 39.07644 | -78.62105 | 31811 ft | 385 kts | 247° |
| 2026-05-06 17:48 | 39.05156 | -78.68214 | 31815 ft | 385 kts | 247° |
| 2026-05-06 17:49 | 39.02707 | -78.74214 | 31826 ft | 373 kts | 247° |
| 2026-05-06 17:49 | 39.00303 | -78.80099 | 31821 ft | 371 kts | 247° |
| 2026-05-06 17:50 | 38.97892 | -78.85991 | 31826 ft | 373 kts | 247° |
| 2026-05-06 17:50 | 38.95486 | -78.91866 | 31824 ft | 373 kts | 247° |
| 2026-05-06 17:51 | 38.93064 | -78.97774 | 31834 ft | 374 kts | 247° |
| 2026-05-06 17:51 | 38.90641 | -79.03674 | 31823 ft | 373 kts | 246° |
| 2026-05-06 17:52 | 38.88619 | -79.08586 | 31840 ft | 375 kts | 246° |
| 2026-05-06 17:52 | 38.86183 | -79.14496 | 31846 ft | 374 kts | 246° |
| 2026-05-06 17:53 | 38.83971 | -79.20494 | 31839 ft | 368 kts | 258° |
| 2026-05-06 17:53 | 38.82787 | -79.26892 | 31848 ft | 369 kts | 258° |
| 2026-05-06 17:54 | 38.81608 | -79.33297 | 31822 ft | 367 kts | 258° |
| 2026-05-06 17:54 | 38.80449 | -79.39704 | 31860 ft | 369 kts | 258° |
| 2026-05-06 17:55 | 38.79296 | -79.46089 | 31878 ft | 368 kts | 258° |
| 2026-05-06 17:55 | 38.78136 | -79.52486 | 31876 ft | 367 kts | 258° |
| 2026-05-06 17:56 | 38.76975 | -79.58866 | 31893 ft | 368 kts | 258° |
| 2026-05-06 17:56 | 38.75813 | -79.65236 | 31908 ft | 368 kts | 258° |
| 2026-05-06 17:57 | 38.74646 | -79.71611 | 31902 ft | 367 kts | 258° |
| 2026-05-06 17:57 | 38.73484 | -79.77940 | 31906 ft | 367 kts | 258° |
| 2026-05-06 17:58 | 38.72312 | -79.84299 | 31906 ft | 366 kts | 258° |
| 2026-05-06 17:58 | 38.71140 | -79.90635 | 31905 ft | 365 kts | 258° |
| 2026-05-06 17:59 | 38.69968 | -79.96954 | 31906 ft | 365 kts | 258° |
| 2026-05-06 17:59 | 38.68791 | -80.03280 | 31896 ft | 366 kts | 258° |
| 2026-05-06 18:00 | 38.67617 | -80.09569 | 31881 ft | 365 kts | 258° |
| 2026-05-06 18:00 | 38.66435 | -80.15890 | 31886 ft | 364 kts | 258° |
| 2026-05-06 18:01 | 38.65246 | -80.22210 | 31905 ft | 365 kts | 258° |
| 2026-05-06 18:01 | 38.64059 | -80.28503 | 31908 ft | 364 kts | 258° |
| 2026-05-06 18:02 | 38.62868 | -80.34801 | 31902 ft | 364 kts | 258° |
| 2026-05-06 18:02 | 38.61671 | -80.41110 | 31872 ft | 364 kts | 258° |
| 2026-05-06 18:03 | 38.60470 | -80.47421 | 31914 ft | 366 kts | 258° |
| 2026-05-06 18:03 | 38.59271 | -80.53700 | 31918 ft | 366 kts | 258° |
| 2026-05-06 18:04 | 38.58052 | -80.60060 | 31906 ft | 367 kts | 258° |
| 2026-05-06 18:04 | 38.56838 | -80.66382 | 31904 ft | 366 kts | 258° |
| 2026-05-06 18:05 | 38.55626 | -80.72670 | 31910 ft | 366 kts | 258° |
| 2026-05-06 18:05 | 38.54403 | -80.78995 | 31917 ft | 366 kts | 258° |
| 2026-05-06 18:06 | 38.53177 | -80.85317 | 31917 ft | 366 kts | 258° |
| 2026-05-06 18:06 | 38.51951 | -80.91619 | 31917 ft | 365 kts | 258° |
| 2026-05-06 18:07 | 38.50723 | -80.97912 | 31916 ft | 365 kts | 258° |
| 2026-05-06 18:07 | 38.49493 | -81.04197 | 31929 ft | 365 kts | 258° |
| 2026-05-06 18:08 | 38.48260 | -81.10474 | 31915 ft | 365 kts | 258° |
| 2026-05-06 18:08 | 38.47030 | -81.16721 | 31924 ft | 365 kts | 258° |
| 2026-05-06 18:09 | 38.45787 | -81.23014 | 31934 ft | 365 kts | 258° |
| 2026-05-06 18:09 | 38.44544 | -81.29286 | 31927 ft | 364 kts | 258° |